Time;durP1;ratioP1;P1;durP2;ratioP2;P2;SDS_P1;SDS_P2;PMS_P1;PMS_P2;Temp;Humidity;BMP_temperature;BMP_pressure;BME280_temperature;BME280_humidity;BME280_pressure;Samples;Min_cycle;Max_cycle;Signal;HPM_P1;HPM_P2
2022/11/08 00:03:47;;;;;;;9.45;1.92;;;;;;;;;;5033400;28;20705;-63
2022/11/08 00:14:23;;;;;;;14.15;2.67;;;;;;;;;;5032103;28;20561;-62
2022/11/08 00:16:49;;;;;;;12.13;2.15;;;;;;;;;;5033349;28;20211;-63
2022/11/08 00:19:15;;;;;;;12.20;2.10;;;;;;;;;;5032610;28;20220;-63
2022/11/08 00:21:40;;;;;;;10.07;2.33;;;;;;;;;;5032553;28;20251;-63
2022/11/08 00:24:05;;;;;;;12.85;2.15;;;;;;;;;;5032607;28;20212;-64
2022/11/08 00:26:30;;;;;;;9.32;2.00;;;;;;;;;;5033254;28;20219;-63
2022/11/08 00:28:57;;;;;;;10.32;2.03;;;;;;;;;;5032356;28;20220;-63
2022/11/08 00:31:22;;;;;;;12.20;2.50;;;;;;;;;;5032568;28;20239;-63
2022/11/08 00:33:47;;;;;;;10.93;2.80;;;;;;;;;;5032620;28;20297;-63
2022/11/08 00:36:12;;;;;;;8.77;2.33;;;;;;;;;;5031735;28;20211;-62
2022/11/08 00:38:44;;;;;;;11.13;2.20;;;;;;;;;;5032863;28;20235;-63
2022/11/08 00:41:09;;;;;;;11.52;2.80;;;;;;;;;;5032539;28;20561;-63
2022/11/08 00:43:35;;;;;;;10.85;2.70;;;;;;;;;;5032143;28;20222;-63
2022/11/08 00:46:00;;;;;;;8.57;2.47;;;;;;;;;;5032882;28;20236;-63
2022/11/08 00:48:25;;;;;;;9.93;2.55;;;;;;;;;;5032184;28;20222;-63
2022/11/08 00:50:51;;;;;;;7.93;2.72;;;;;;;;;;5031869;28;20228;-63
2022/11/08 00:53:16;;;;;;;9.35;2.63;;;;;;;;;;5031918;28;20623;-63
2022/11/08 00:55:41;;;;;;;14.98;3.08;;;;;;;;;;5032952;28;20238;-63
2022/11/08 00:58:06;;;;;;;8.80;2.30;;;;;;;;;;5031278;28;20262;-63
2022/11/08 01:00:32;;;;;;;10.63;2.10;;;;;;;;;;5032496;28;20232;-63
2022/11/08 01:03:20;;;;;;;11.68;2.35;;;;;;;;;;5030984;28;20295;-63
2022/11/08 01:05:46;;;;;;;9.32;2.20;;;;;;;;;;5017971;28;20583;-63
2022/11/08 01:08:11;;;;;;;7.88;2.28;;;;;;;;;;5032047;28;20774;-63
2022/11/08 01:10:39;;;;;;;9.80;2.05;;;;;;;;;;5031840;28;20232;-62
2022/11/08 01:13:04;;;;;;;7.55;2.08;;;;;;;;;;5031821;28;20750;-63
2022/11/08 01:15:36;;;;;;;9.57;2.10;;;;;;;;;;5028585;28;20224;-63
2022/11/08 01:18:02;;;;;;;9.68;1.90;;;;;;;;;;5027126;28;20261;-63
2022/11/08 01:20:27;;;;;;;8.98;2.15;;;;;;;;;;5032307;28;20220;-63
2022/11/08 01:22:52;;;;;;;9.45;2.67;;;;;;;;;;5032343;28;20242;-63
2022/11/08 01:25:17;;;;;;;8.93;2.08;;;;;;;;;;5031148;28;20212;-63
2022/11/08 01:27:43;;;;;;;10.63;2.30;;;;;;;;;;5032497;28;20290;-62
2022/11/08 01:30:08;;;;;;;8.68;2.08;;;;;;;;;;5031811;28;20228;-63
2022/11/08 01:32:33;;;;;;;11.98;2.40;;;;;;;;;;5031550;28;20362;-63
2022/11/08 01:34:59;;;;;;;12.10;2.25;;;;;;;;;;5031978;28;20219;-63
2022/11/08 01:37:24;;;;;;;9.07;2.50;;;;;;;;;;5031963;28;20644;-63
2022/11/08 01:39:49;;;;;;;14.18;2.58;;;;;;;;;;5031424;28;20222;-62
2022/11/08 01:42:14;;;;;;;9.38;2.72;;;;;;;;;;5031774;28;20747;-62
2022/11/08 01:44:58;;;;;;;8.07;2.60;;;;;;;;;;5032150;28;20226;-63
2022/11/08 01:47:23;;;;;;;7.78;2.95;;;;;;;;;;5029349;28;20208;-63
2022/11/08 01:49:49;;;;;;;10.77;2.38;;;;;;;;;;5031779;28;20231;-63
2022/11/08 01:52:16;;;;;;;8.57;3.05;;;;;;;;;;5029687;28;20701;-63
2022/11/08 01:54:43;;;;;;;10.93;2.90;;;;;;;;;;5030882;28;20219;-63
2022/11/08 01:57:10;;;;;;;11.05;2.35;;;;;;;;;;5031761;28;20212;-62
2022/11/08 01:59:35;;;;;;;13.43;2.85;;;;;;;;;;5029892;28;20231;-62
2022/11/08 02:02:00;;;;;;;10.48;2.90;;;;;;;;;;5030362;28;20238;-64
2022/11/08 02:04:25;;;;;;;8.57;2.60;;;;;;;;;;5031880;28;20212;-62
2022/11/08 02:06:51;;;;;;;12.75;2.70;;;;;;;;;;5031258;28;20216;-63
2022/11/08 02:09:16;;;;;;;9.50;3.05;;;;;;;;;;5031424;28;20226;-63
2022/11/08 02:11:41;;;;;;;10.88;2.92;;;;;;;;;;5031991;28;20215;-62
2022/11/08 02:14:06;;;;;;;9.25;2.95;;;;;;;;;;5030664;28;20257;-63
2022/11/08 02:16:32;;;;;;;11.40;2.88;;;;;;;;;;5034405;28;20709;-63
2022/11/08 02:18:58;;;;;;;8.25;2.60;;;;;;;;;;5035475;28;20216;-63
2022/11/08 02:21:27;;;;;;;11.50;3.47;;;;;;;;;;5026512;28;20211;-63
2022/11/08 02:23:52;;;;;;;9.00;2.72;;;;;;;;;;5035393;28;20223;-63
2022/11/08 02:26:18;;;;;;;14.60;3.10;;;;;;;;;;5035159;28;20219;-63
2022/11/08 02:28:44;;;;;;;8.82;2.92;;;;;;;;;;5002856;28;20398;-63
2022/11/08 02:31:10;;;;;;;10.45;2.60;;;;;;;;;;5015048;28;20683;-63
2022/11/08 02:33:35;;;;;;;9.60;2.75;;;;;;;;;;5015646;28;20757;-63
2022/11/08 02:36:00;;;;;;;10.50;2.65;;;;;;;;;;5013918;28;20216;-63
2022/11/08 02:38:26;;;;;;;12.13;2.75;;;;;;;;;;5014218;28;20220;-63
2022/11/08 02:40:53;;;;;;;11.18;2.63;;;;;;;;;;5025924;28;20255;-62
2022/11/08 02:43:18;;;;;;;8.68;2.65;;;;;;;;;;5032147;28;20207;-63
2022/11/08 02:45:43;;;;;;;9.57;2.50;;;;;;;;;;5035320;28;20273;-64
2022/11/08 02:48:09;;;;;;;10.57;2.83;;;;;;;;;;5013650;28;20687;-63
2022/11/08 02:50:34;;;;;;;8.50;2.50;;;;;;;;;;5003874;28;20231;-63
2022/11/08 02:52:59;;;;;;;8.43;2.20;;;;;;;;;;5005238;28;20623;-63
2022/11/08 02:55:24;;;;;;;7.22;2.00;;;;;;;;;;5004037;28;20224;-63
2022/11/08 02:57:50;;;;;;;8.63;2.28;;;;;;;;;;5004077;28;20220;-63
2022/11/08 03:00:15;;;;;;;10.85;2.47;;;;;;;;;;5004690;28;20311;-63
2022/11/08 03:02:40;;;;;;;12.43;2.50;;;;;;;;;;4999066;28;20220;-63
2022/11/08 03:05:06;;;;;;;7.55;1.92;;;;;;;;;;4996701;28;20595;-63
2022/11/08 03:07:31;;;;;;;9.00;2.30;;;;;;;;;;4997021;28;20596;-63
2022/11/08 03:09:56;;;;;;;6.43;2.03;;;;;;;;;;5001968;28;21090;-63
2022/11/08 03:12:21;;;;;;;6.75;2.03;;;;;;;;;;5004569;28;20219;-63
2022/11/08 03:14:47;;;;;;;6.20;2.10;;;;;;;;;;5004637;28;20735;-63
2022/11/08 03:17:12;;;;;;;8.68;2.33;;;;;;;;;;5004083;28;20228;-63
2022/11/08 03:19:37;;;;;;;8.57;2.83;;;;;;;;;;5005279;28;20315;-63
2022/11/08 03:22:02;;;;;;;10.20;2.50;;;;;;;;;;5003761;28;20209;-63
2022/11/08 03:24:28;;;;;;;10.65;2.33;;;;;;;;;;5000980;28;20224;-63
2022/11/08 03:26:53;;;;;;;8.13;2.20;;;;;;;;;;4996651;28;20782;-63
2022/11/08 03:29:18;;;;;;;8.68;2.00;;;;;;;;;;4995962;28;20240;-63
2022/11/08 03:31:43;;;;;;;10.85;2.38;;;;;;;;;;4998668;28;20212;-63
2022/11/08 03:34:09;;;;;;;9.85;1.63;;;;;;;;;;5004400;28;20643;-63
2022/11/08 03:36:34;;;;;;;7.25;1.90;;;;;;;;;;5004366;28;20228;-63
2022/11/08 03:39:00;;;;;;;7.68;2.10;;;;;;;;;;5003725;28;20209;-63
2022/11/08 03:41:25;;;;;;;8.80;2.33;;;;;;;;;;5004002;28;20743;-63
2022/11/08 03:43:50;;;;;;;8.93;1.80;;;;;;;;;;5004318;28;20720;-62
2022/11/08 03:46:15;;;;;;;10.80;3.00;;;;;;;;;;5002813;28;20306;-63
2022/11/08 03:48:41;;;;;;;9.02;1.83;;;;;;;;;;5006283;28;20208;-63
2022/11/08 03:51:06;;;;;;;6.30;2.10;;;;;;;;;;5011970;28;20224;-63
2022/11/08 03:53:31;;;;;;;8.18;2.10;;;;;;;;;;5013139;28;20220;-62
2022/11/08 03:55:58;;;;;;;7.38;2.05;;;;;;;;;;5004546;28;20292;-62
2022/11/08 03:58:23;;;;;;;6.10;1.92;;;;;;;;;;4993717;28;20208;-63
2022/11/08 04:00:49;;;;;;;8.30;2.25;;;;;;;;;;4993537;28;20213;-63
2022/11/08 04:03:14;;;;;;;8.10;1.92;;;;;;;;;;4993818;28;20267;-63
2022/11/08 04:05:39;;;;;;;5.95;2.10;;;;;;;;;;4994279;28;20627;-63
2022/11/08 04:08:05;;;;;;;6.22;1.60;;;;;;;;;;4992899;28;20209;-63
2022/11/08 04:10:30;;;;;;;6.93;1.80;;;;;;;;;;4994078;28;20232;-63
2022/11/08 04:15:41;;;;;;;6.38;1.60;;;;;;;;;;5008258;28;20598;-63
2022/11/08 04:23:34;;;;;;;5.95;2.00;;;;;;;;;;5024580;28;20225;-63
2022/11/08 04:26:00;;;;;;;9.13;1.90;;;;;;;;;;5033201;28;20207;-63
2022/11/08 04:28:27;;;;;;;8.25;2.05;;;;;;;;;;5032293;28;20232;-63
2022/11/08 04:30:53;;;;;;;6.72;1.80;;;;;;;;;;5033075;28;20238;-63
2022/11/08 04:33:18;;;;;;;7.00;1.70;;;;;;;;;;5032536;28;20290;-63
2022/11/08 04:35:43;;;;;;;4.55;1.50;;;;;;;;;;5029348;28;20243;-62
2022/11/08 04:38:09;;;;;;;8.15;1.88;;;;;;;;;;5011979;28;20223;-62
2022/11/08 04:40:34;;;;;;;9.30;1.80;;;;;;;;;;5014591;28;20208;-62
2022/11/08 04:42:59;;;;;;;7.85;2.10;;;;;;;;;;5019893;28;20707;-61
2022/11/08 04:45:24;;;;;;;6.93;2.00;;;;;;;;;;5022241;28;20298;-62
2022/11/08 04:47:50;;;;;;;7.78;1.65;;;;;;;;;;5023071;28;20215;-62
2022/11/08 04:50:15;;;;;;;6.63;1.80;;;;;;;;;;5021717;28;20286;-62
2022/11/08 04:52:40;;;;;;;6.13;1.70;;;;;;;;;;5022690;28;20319;-62
2022/11/08 04:55:06;;;;;;;8.57;2.08;;;;;;;;;;5021142;28;20212;-62
2022/11/08 04:57:31;;;;;;;5.95;1.80;;;;;;;;;;5020305;28;20867;-61
2022/11/08 04:59:56;;;;;;;7.32;1.90;;;;;;;;;;5015333;28;20263;-61
2022/11/08 05:02:22;;;;;;;7.35;1.98;;;;;;;;;;5013474;28;20612;-62
2022/11/08 05:04:47;;;;;;;7.10;2.10;;;;;;;;;;5017519;28;20207;-62
2022/11/08 05:07:12;;;;;;;8.20;2.10;;;;;;;;;;5022134;28;20216;-62
2022/11/08 05:09:37;;;;;;;7.50;2.22;;;;;;;;;;5022195;28;20231;-62
2022/11/08 05:12:03;;;;;;;4.70;1.42;;;;;;;;;;5022041;28;20741;-62
2022/11/08 05:14:28;;;;;;;6.45;2.10;;;;;;;;;;5022457;28;20230;-62
2022/11/08 05:16:53;;;;;;;4.30;1.60;;;;;;;;;;5022323;28;20230;-62
2022/11/08 05:23:22;;;;;;;7.80;1.92;;;;;;;;;;5022371;28;20218;-62
2022/11/08 05:24:47;;;;;;;7.18;1.80;;;;;;;;;;5013985;28;20293;-62
2022/11/08 05:27:13;;;;;;;6.25;1.88;;;;;;;;;;5016110;28;20674;-62
2022/11/08 05:29:38;;;;;;;6.40;1.80;;;;;;;;;;5022742;28;20219;-62
2022/11/08 05:32:03;;;;;;;7.05;1.83;;;;;;;;;;5021038;28;20314;-62
2022/11/08 05:34:29;;;;;;;8.23;2.17;;;;;;;;;;5022461;28;20212;-62
2022/11/08 05:36:54;;;;;;;6.85;2.33;;;;;;;;;;5022501;28;20234;-62
2022/11/08 05:39:19;;;;;;;5.70;1.85;;;;;;;;;;5021415;28;20219;-62
2022/11/08 05:41:44;;;;;;;6.03;1.85;;;;;;;;;;5022115;28;20228;-62
2022/11/08 05:44:10;;;;;;;8.25;2.30;;;;;;;;;;5014645;28;20222;-62
2022/11/08 05:46:35;;;;;;;9.68;2.13;;;;;;;;;;5013238;28;20246;-62
2022/11/08 05:49:00;;;;;;;8.07;2.13;;;;;;;;;;5013944;28;20269;-63
2022/11/08 05:51:25;;;;;;;7.32;2.25;;;;;;;;;;5024403;28;20821;-62
2022/11/08 05:53:51;;;;;;;6.05;2.10;;;;;;;;;;5026327;28;20302;-62
2022/11/08 05:56:16;;;;;;;9.50;2.53;;;;;;;;;;5025365;28;20222;-62
2022/11/08 05:58:41;;;;;;;9.68;2.50;;;;;;;;;;5025596;28;20239;-62
2022/11/08 06:01:08;;;;;;;8.68;2.50;;;;;;;;;;5025739;28;20227;-62
2022/11/08 06:03:33;;;;;;;5.32;2.03;;;;;;;;;;5025878;28;20226;-62
2022/11/08 06:06:05;;;;;;;5.88;2.30;;;;;;;;;;5021236;28;20568;-62
2022/11/08 06:08:31;;;;;;;6.38;2.50;;;;;;;;;;5017760;28;20249;-62
2022/11/08 06:11:01;;;;;;;8.23;2.60;;;;;;;;;;5015827;28;20239;-62
2022/11/08 06:13:26;;;;;;;7.65;2.58;;;;;;;;;;5021181;28;20271;-62
2022/11/08 06:15:52;;;;;;;6.95;2.83;;;;;;;;;;5018140;28;20695;-62
2022/11/08 06:18:17;;;;;;;8.02;2.58;;;;;;;;;;5005488;28;20227;-62
2022/11/08 06:20:42;;;;;;;8.52;2.75;;;;;;;;;;5005364;28;20220;-62
2022/11/08 06:23:07;;;;;;;8.35;2.83;;;;;;;;;;5005515;28;20230;-62
2022/11/08 06:25:33;;;;;;;9.43;2.90;;;;;;;;;;5005888;28;20525;-62
2022/11/08 06:27:58;;;;;;;6.63;2.53;;;;;;;;;;5002749;28;20215;-61
2022/11/08 06:30:24;;;;;;;7.68;2.65;;;;;;;;;;4997391;28;20224;-62
2022/11/08 06:32:49;;;;;;;6.15;2.70;;;;;;;;;;4998043;28;20299;-62
2022/11/08 06:35:14;;;;;;;6.93;2.67;;;;;;;;;;4998522;28;20287;-61
2022/11/08 06:37:39;;;;;;;6.25;2.40;;;;;;;;;;5005769;28;20219;-62
2022/11/08 06:40:05;;;;;;;7.97;2.42;;;;;;;;;;5005063;28;20213;-61
2022/11/08 06:42:31;;;;;;;9.75;2.55;;;;;;;;;;5004834;28;20696;-62
2022/11/08 06:44:56;;;;;;;11.02;2.78;;;;;;;;;;4991656;28;20303;-62
2022/11/08 06:47:21;;;;;;;7.20;2.95;;;;;;;;;;5005012;28;20216;-62
2022/11/08 06:49:47;;;;;;;6.88;2.70;;;;;;;;;;5004578;28;20235;-62
2022/11/08 06:52:12;;;;;;;6.30;2.58;;;;;;;;;;5001799;28;20309;-62
2022/11/08 06:54:37;;;;;;;6.63;2.15;;;;;;;;;;5013654;28;20604;-61
2022/11/08 06:57:02;;;;;;;7.25;3.13;;;;;;;;;;5025841;28;20223;-63
2022/11/08 06:59:28;;;;;;;6.60;2.40;;;;;;;;;;5018514;28;20255;-62
2022/11/08 07:01:54;;;;;;;6.47;2.47;;;;;;;;;;5028726;28;20437;-61
2022/11/08 07:04:20;;;;;;;5.82;2.30;;;;;;;;;;5034224;28;26080;-62
2022/11/08 07:06:45;;;;;;;7.45;2.75;;;;;;;;;;5033649;28;20632;-63
2022/11/08 07:09:10;;;;;;;7.25;2.42;;;;;;;;;;5031719;28;20226;-62
2022/11/08 07:11:35;;;;;;;7.55;2.40;;;;;;;;;;5032695;28;20208;-62
2022/11/08 07:14:01;;;;;;;6.55;2.40;;;;;;;;;;5033168;28;20576;-62
2022/11/08 07:16:26;;;;;;;9.07;2.20;;;;;;;;;;5035642;28;20227;-62
2022/11/08 07:18:51;;;;;;;6.60;2.65;;;;;;;;;;5044061;28;20216;-62
2022/11/08 07:21:16;;;;;;;5.13;2.08;;;;;;;;;;5041804;28;20208;-62
2022/11/08 07:23:42;;;;;;;6.47;2.10;;;;;;;;;;5043469;28;20206;-62
2022/11/08 07:26:09;;;;;;;6.75;2.33;;;;;;;;;;5042843;28;20199;-62
2022/11/08 07:28:34;;;;;;;5.30;1.92;;;;;;;;;;5042450;28;20294;-62
2022/11/08 07:31:00;;;;;;;6.43;2.90;;;;;;;;;;5043563;28;20812;-62
2022/11/08 07:33:25;;;;;;;6.78;2.20;;;;;;;;;;5037871;28;20572;-62
2022/11/08 07:35:51;;;;;;;6.20;2.10;;;;;;;;;;5033852;28;20204;-62
2022/11/08 07:38:16;;;;;;;5.32;1.75;;;;;;;;;;5032241;28;20203;-62
2022/11/08 07:40:41;;;;;;;4.57;2.10;;;;;;;;;;5033642;28;20204;-61
2022/11/08 07:43:07;;;;;;;6.80;2.33;;;;;;;;;;5032637;28;20207;-62
2022/11/08 07:45:32;;;;;;;5.63;1.90;;;;;;;;;;5032767;28;20224;-62
2022/11/08 07:47:58;;;;;;;5.35;1.92;;;;;;;;;;5033428;28;20689;-62
2022/11/08 07:50:23;;;;;;;6.68;1.90;;;;;;;;;;5032928;28;20273;-62
2022/11/08 07:52:48;;;;;;;7.03;1.92;;;;;;;;;;5034939;28;20260;-62
2022/11/08 07:55:14;;;;;;;5.22;1.80;;;;;;;;;;5029663;28;20271;-62
2022/11/08 07:57:39;;;;;;;6.28;2.00;;;;;;;;;;5021613;28;20216;-62
2022/11/08 08:00:05;;;;;;;5.65;1.73;;;;;;;;;;5022039;28;20252;-62
2022/11/08 08:02:30;;;;;;;3.70;1.77;;;;;;;;;;5022334;28;20297;-62
2022/11/08 08:04:55;;;;;;;5.68;2.00;;;;;;;;;;5020591;28;20204;-62
2022/11/08 08:07:20;;;;;;;4.70;2.17;;;;;;;;;;5023451;28;20242;-62
2022/11/08 08:09:46;;;;;;;5.75;1.90;;;;;;;;;;5022885;28;20582;-62
2022/11/08 08:12:11;;;;;;;4.63;1.63;;;;;;;;;;5024504;28;20319;-64
2022/11/08 08:14:36;;;;;;;3.95;1.80;;;;;;;;;;5031676;28;20627;-65
2022/11/08 08:17:01;;;;;;;4.75;1.58;;;;;;;;;;5013361;28;20209;-64
2022/11/08 08:19:27;;;;;;;5.07;2.13;;;;;;;;;;5021419;28;20219;-64
2022/11/08 08:21:52;;;;;;;5.05;1.67;;;;;;;;;;5042279;28;20678;-65
2022/11/08 08:24:17;;;;;;;4.18;1.80;;;;;;;;;;5046016;28;20258;-64
2022/11/08 08:26:42;;;;;;;4.93;1.80;;;;;;;;;;5048097;28;20214;-64
2022/11/08 08:29:08;;;;;;;5.90;1.80;;;;;;;;;;5041097;28;20215;-64
2022/11/08 08:31:33;;;;;;;6.70;2.08;;;;;;;;;;5027965;28;20297;-64
2022/11/08 08:33:58;;;;;;;5.93;1.92;;;;;;;;;;5039892;28;20218;-64
2022/11/08 08:36:24;;;;;;;4.32;2.28;;;;;;;;;;5020552;28;20250;-65
2022/11/08 08:38:49;;;;;;;4.35;1.60;;;;;;;;;;5018857;28;20212;-64
2022/11/08 08:41:14;;;;;;;5.75;2.20;;;;;;;;;;5017421;28;20253;-64
2022/11/08 08:43:39;;;;;;;5.30;1.83;;;;;;;;;;5037239;28;20272;-64
2022/11/08 08:46:05;;;;;;;6.22;2.20;;;;;;;;;;5032487;28;20245;-64
2022/11/08 08:48:30;;;;;;;6.03;1.77;;;;;;;;;;5026723;28;20216;-64
2022/11/08 08:50:56;;;;;;;3.30;1.73;;;;;;;;;;5027869;28;20223;-64
2022/11/08 08:53:21;;;;;;;7.47;1.95;;;;;;;;;;5026610;28;20200;-64
2022/11/08 08:55:51;;;;;;;5.85;1.90;;;;;;;;;;5027090;28;20226;-64
2022/11/08 08:58:16;;;;;;;5.28;1.83;;;;;;;;;;5026838;28;20204;-64
2022/11/08 09:00:42;;;;;;;4.70;1.80;;;;;;;;;;5027262;28;20226;-64
2022/11/08 09:03:07;;;;;;;5.68;1.50;;;;;;;;;;5025769;28;20210;-64
2022/11/08 09:05:33;;;;;;;3.53;1.40;;;;;;;;;;5038869;28;20211;-64
2022/11/08 09:07:58;;;;;;;4.28;1.55;;;;;;;;;;5039574;28;20927;-64
2022/11/08 09:10:23;;;;;;;5.93;1.40;;;;;;;;;;5025269;28;20211;-64
2022/11/08 09:12:49;;;;;;;3.78;1.40;;;;;;;;;;5026971;28;20230;-64
2022/11/08 09:15:14;;;;;;;3.90;1.45;;;;;;;;;;5026183;28;20196;-64
2022/11/08 09:17:39;;;;;;;5.38;1.30;;;;;;;;;;5027703;28;20216;-64
2022/11/08 09:20:05;;;;;;;4.22;1.40;;;;;;;;;;5027022;28;20224;-64
2022/11/08 09:22:31;;;;;;;5.47;1.30;;;;;;;;;;5026383;28;20203;-64
2022/11/08 09:24:56;;;;;;;3.58;1.45;;;;;;;;;;5033802;28;20693;-63
2022/11/08 09:27:22;;;;;;;2.17;1.20;;;;;;;;;;5035215;28;20215;-64
2022/11/08 09:29:47;;;;;;;5.63;1.63;;;;;;;;;;5025497;28;20231;-64
2022/11/08 09:32:12;;;;;;;3.95;1.33;;;;;;;;;;5026131;28;20222;-63
2022/11/08 09:34:37;;;;;;;5.55;1.48;;;;;;;;;;5026592;28;20218;-64
2022/11/08 09:37:03;;;;;;;5.53;1.60;;;;;;;;;;5025797;28;20369;-64
2022/11/08 09:39:28;;;;;;;4.93;1.60;;;;;;;;;;5026467;28;20848;-63
2022/11/08 09:41:58;;;;;;;5.03;1.65;;;;;;;;;;5026653;28;20222;-64
2022/11/08 09:44:33;;;;;;;4.28;1.40;;;;;;;;;;5007490;28;20686;-64
2022/11/08 09:47:02;;;;;;;4.10;1.40;;;;;;;;;;5007679;28;20225;-65
2022/11/08 09:49:30;;;;;;;4.40;1.40;;;;;;;;;;5025392;28;20220;-64
2022/11/08 09:51:56;;;;;;;3.90;1.60;;;;;;;;;;5007918;28;20302;-64
2022/11/08 09:54:23;;;;;;;3.40;1.50;;;;;;;;;;4992008;28;20762;-64
2022/11/08 09:56:48;;;;;;;3.15;1.40;;;;;;;;;;5008757;28;20222;-64
2022/11/08 09:59:20;;;;;;;4.60;1.70;;;;;;;;;;4999006;28;20248;-64
2022/11/08 10:01:45;;;;;;;5.63;1.50;;;;;;;;;;5007141;28;20244;-64
2022/11/08 10:04:12;;;;;;;4.05;1.55;;;;;;;;;;4987916;28;20814;-64
2022/11/08 10:06:37;;;;;;;2.60;1.42;;;;;;;;;;4999427;28;20213;-64
2022/11/08 10:09:23;;;;;;;3.83;1.75;;;;;;;;;;5006863;28;20711;-64
2022/11/08 10:11:55;;;;;;;5.47;1.58;;;;;;;;;;4988911;28;21101;-64
2022/11/08 10:14:24;;;;;;;3.90;1.42;;;;;;;;;;4988728;28;20703;-63
2022/11/08 10:16:51;;;;;;;3.03;1.45;;;;;;;;;;5001385;28;20239;-64
2022/11/08 10:19:22;;;;;;;5.07;1.52;;;;;;;;;;5023012;28;20220;-63
2022/11/08 10:22:07;;;;;;;7.72;1.77;;;;;;;;;;5015918;28;20618;-63
2022/11/08 10:24:34;;;;;;;8.30;2.00;;;;;;;;;;4997379;28;20307;-64
2022/11/08 10:27:00;;;;;;;4.93;1.63;;;;;;;;;;5004219;28;20417;-64
2022/11/08 10:29:29;;;;;;;3.75;1.50;;;;;;;;;;5006287;28;20570;-64
2022/11/08 10:31:57;;;;;;;4.50;1.52;;;;;;;;;;5005609;28;20346;-64
2022/11/08 10:34:23;;;;;;;4.85;1.80;;;;;;;;;;5004640;28;20217;-64
2022/11/08 10:36:50;;;;;;;5.15;1.75;;;;;;;;;;5005693;28;20212;-64
2022/11/08 10:39:18;;;;;;;3.70;1.60;;;;;;;;;;5007459;28;20247;-64
2022/11/08 10:41:48;;;;;;;3.22;1.27;;;;;;;;;;5001749;28;20207;-64
2022/11/08 10:44:15;;;;;;;2.85;1.40;;;;;;;;;;5003612;28;20292;-64
2022/11/08 10:46:42;;;;;;;5.82;1.60;;;;;;;;;;5002271;28;20259;-63
2022/11/08 10:49:09;;;;;;;4.38;1.65;;;;;;;;;;5004482;28;20204;-64
2022/11/08 10:51:34;;;;;;;4.65;1.55;;;;;;;;;;5010954;28;20270;-64
2022/11/08 10:54:00;;;;;;;4.97;1.60;;;;;;;;;;5017918;28;20204;-64
2022/11/08 10:56:25;;;;;;;6.53;1.75;;;;;;;;;;5018746;28;20208;-64
2022/11/08 10:58:50;;;;;;;5.18;1.67;;;;;;;;;;5014549;28;20607;-64
2022/11/08 11:01:18;;;;;;;4.82;1.60;;;;;;;;;;5027749;28;20666;-64
2022/11/08 11:03:43;;;;;;;6.50;1.90;;;;;;;;;;5028546;28;20212;-64
2022/11/08 11:06:28;;;;;;;6.60;1.95;;;;;;;;;;5028380;28;20223;-64
2022/11/08 11:08:54;;;;;;;5.97;1.65;;;;;;;;;;5028906;28;20614;-64
2022/11/08 11:11:20;;;;;;;4.65;1.67;;;;;;;;;;5028624;28;20719;-64
2022/11/08 11:13:45;;;;;;;6.50;1.90;;;;;;;;;;5028932;28;20223;-64
2022/11/08 11:16:12;;;;;;;5.63;1.60;;;;;;;;;;5026226;28;20576;-64
2022/11/08 11:18:44;;;;;;;6.45;1.70;;;;;;;;;;5026951;28;20733;-63
2022/11/08 11:21:10;;;;;;;4.57;1.80;;;;;;;;;;5009779;28;20212;-63
2022/11/08 11:23:43;;;;;;;3.92;1.90;;;;;;;;;;5027690;28;20551;-64
2022/11/08 11:26:16;;;;;;;3.75;1.60;;;;;;;;;;5027964;28;20531;-64
2022/11/08 11:28:57;;;;;;;4.32;1.75;;;;;;;;;;5028681;28;20226;-63
2022/11/08 11:31:22;;;;;;;3.88;1.70;;;;;;;;;;5027919;28;20255;-63
2022/11/08 11:33:48;;;;;;;4.35;1.55;;;;;;;;;;5028659;28;20240;-64
2022/11/08 11:36:14;;;;;;;4.72;1.60;;;;;;;;;;5027894;28;20555;-63
2022/11/08 11:38:43;;;;;;;4.18;1.73;;;;;;;;;;5028367;28;20315;-64
2022/11/08 11:41:13;;;;;;;5.38;1.77;;;;;;;;;;5027936;28;20219;-63
2022/11/08 11:43:46;;;;;;;6.78;1.85;;;;;;;;;;5027649;28;20289;-64
2022/11/08 11:46:13;;;;;;;3.97;1.50;;;;;;;;;;5027795;28;20583;-63
2022/11/08 11:48:41;;;;;;;5.07;1.60;;;;;;;;;;5027698;28;20578;-64
2022/11/08 11:51:07;;;;;;;5.28;1.90;;;;;;;;;;5009817;28;20239;-63
2022/11/08 11:53:35;;;;;;;4.82;1.70;;;;;;;;;;5010973;28;20220;-64
2022/11/08 11:56:01;;;;;;;3.90;1.70;;;;;;;;;;5011061;28;20586;-63
2022/11/08 11:58:42;;;;;;;3.40;1.50;;;;;;;;;;5037491;28;20219;-63
2022/11/08 12:01:14;;;;;;;4.18;1.42;;;;;;;;;;5030306;28;20222;-64
2022/11/08 12:03:59;;;;;;;3.55;1.60;;;;;;;;;;5048201;28;20300;-64
2022/11/08 12:06:29;;;;;;;4.38;1.67;;;;;;;;;;5028371;28;20290;-64
2022/11/08 12:09:05;;;;;;;5.93;1.40;;;;;;;;;;5011309;28;20216;-63
2022/11/08 12:11:40;;;;;;;4.38;1.70;;;;;;;;;;5010307;28;20223;-64
2022/11/08 12:14:05;;;;;;;4.38;1.45;;;;;;;;;;5027898;28;20307;-63
2022/11/08 12:16:34;;;;;;;3.65;1.70;;;;;;;;;;5030269;28;20296;-63
2022/11/08 12:19:04;;;;;;;7.72;2.38;;;;;;;;;;5026916;28;20211;-63
2022/11/08 12:21:35;;;;;;;4.82;1.50;;;;;;;;;;5026880;28;20211;-64
2022/11/08 12:24:10;;;;;;;3.75;1.55;;;;;;;;;;5027422;28;20786;-64
2022/11/08 12:26:37;;;;;;;5.07;1.52;;;;;;;;;;5034249;28;20282;-64
2022/11/08 12:29:08;;;;;;;5.10;1.50;;;;;;;;;;5027297;28;20222;-64
2022/11/08 12:31:38;;;;;;;5.78;1.42;;;;;;;;;;5027470;28;20229;-64
2022/11/08 12:34:14;;;;;;;7.97;1.73;;;;;;;;;;5041819;28;20212;-64
2022/11/08 12:36:45;;;;;;;6.10;1.70;;;;;;;;;;5043092;28;20212;-64
2022/11/08 12:39:17;;;;;;;3.75;1.40;;;;;;;;;;5026197;28;20487;-63
2022/11/08 12:41:46;;;;;;;7.20;1.67;;;;;;;;;;5026937;28;20216;-64
2022/11/08 12:44:16;;;;;;;4.60;1.40;;;;;;;;;;5026567;28;20278;-64
2022/11/08 12:46:56;;;;;;;5.32;1.83;;;;;;;;;;5025698;28;20311;-63
2022/11/08 12:49:31;;;;;;;4.00;1.65;;;;;;;;;;5026291;28;20276;-64
2022/11/08 12:52:00;;;;;;;5.35;1.70;;;;;;;;;;5026850;28;20227;-63
2022/11/08 12:54:31;;;;;;;4.85;1.30;;;;;;;;;;5021061;28;20693;-63
2022/11/08 12:56:57;;;;;;;5.38;1.30;;;;;;;;;;5023709;28;20584;-63
2022/11/08 12:59:32;;;;;;;7.28;1.50;;;;;;;;;;5024069;28;20223;-63
2022/11/08 13:01:57;;;;;;;4.82;1.30;;;;;;;;;;5024923;28;20215;-64
2022/11/08 13:04:32;;;;;;;4.15;1.52;;;;;;;;;;5025971;28;20567;-64
2022/11/08 13:07:10;;;;;;;4.18;1.48;;;;;;;;;;5026834;28;20762;-63
2022/11/08 13:09:38;;;;;;;5.40;1.65;;;;;;;;;;5024085;28;20366;-64
2022/11/08 13:12:06;;;;;;;4.93;1.40;;;;;;;;;;5024905;28;20293;-62
2022/11/08 13:14:31;;;;;;;7.32;1.75;;;;;;;;;;5024561;28;20685;-65
2022/11/08 13:17:12;;;;;;;6.15;1.52;;;;;;;;;;5008722;28;20215;-63
2022/11/08 13:19:45;;;;;;;4.35;1.42;;;;;;;;;;5026431;28;20277;-63
2022/11/08 13:22:30;;;;;;;4.47;1.50;;;;;;;;;;5025465;28;20740;-63
2022/11/08 13:24:56;;;;;;;4.97;1.90;;;;;;;;;;5026904;28;20223;-63
2022/11/08 13:27:23;;;;;;;7.72;1.65;;;;;;;;;;5026497;28;20630;-63
2022/11/08 13:29:49;;;;;;;4.30;1.75;;;;;;;;;;5026239;28;20227;-64
2022/11/08 13:32:22;;;;;;;4.72;1.50;;;;;;;;;;5024908;28;20210;-63
2022/11/08 13:34:49;;;;;;;4.85;1.50;;;;;;;;;;5025556;28;20254;-63
2022/11/08 13:37:18;;;;;;;6.75;2.00;;;;;;;;;;5026006;28;20310;-64
2022/11/08 13:39:50;;;;;;;6.22;1.52;;;;;;;;;;5025854;28;20587;-63
2022/11/08 13:42:15;;;;;;;2.88;1.48;;;;;;;;;;5008466;28;20243;-63
2022/11/08 13:44:51;;;;;;;8.40;1.42;;;;;;;;;;5025955;28;20242;-63
2022/11/08 13:47:31;;;;;;;3.30;1.42;;;;;;;;;;5025730;28;20258;-64
2022/11/08 13:50:16;;;;;;;4.80;1.60;;;;;;;;;;5025517;28;20918;-63
2022/11/08 13:52:42;;;;;;;3.17;1.20;;;;;;;;;;5026123;28;20219;-63
2022/11/08 13:55:27;;;;;;;4.40;1.40;;;;;;;;;;5026579;28;20906;-63
2022/11/08 13:57:54;;;;;;;3.92;1.27;;;;;;;;;;5008146;28;20215;-63
2022/11/08 14:00:41;;;;;;;3.72;1.30;;;;;;;;;;5008190;28;20263;-63
2022/11/08 14:03:24;;;;;;;7.05;1.40;;;;;;;;;;5005719;28;20299;-64
2022/11/08 14:05:50;;;;;;;5.97;1.40;;;;;;;;;;5005323;28;20218;-63
2022/11/08 14:08:15;;;;;;;3.92;1.33;;;;;;;;;;4988609;28;20697;-64
2022/11/08 14:10:49;;;;;;;3.42;1.30;;;;;;;;;;4989497;28;20283;-63
2022/11/08 14:13:16;;;;;;;6.10;1.65;;;;;;;;;;5009591;28;20261;-63
2022/11/08 14:15:45;;;;;;;5.60;1.33;;;;;;;;;;4992515;28;20220;-63
2022/11/08 14:18:17;;;;;;;5.22;1.60;;;;;;;;;;4991778;28;20220;-63
2022/11/08 14:20:43;;;;;;;4.15;1.50;;;;;;;;;;5009641;28;20205;-64
2022/11/08 14:23:17;;;;;;;6.55;1.67;;;;;;;;;;5009147;28;20224;-63
2022/11/08 14:25:50;;;;;;;4.03;1.33;;;;;;;;;;5009414;28;20208;-64
2022/11/08 14:28:21;;;;;;;4.75;1.30;;;;;;;;;;5009412;28;20734;-63
2022/11/08 14:30:47;;;;;;;5.95;1.60;;;;;;;;;;5008584;28;20225;-64
2022/11/08 14:33:17;;;;;;;2.92;1.25;;;;;;;;;;5008395;28;20215;-63
2022/11/08 14:35:50;;;;;;;4.30;1.35;;;;;;;;;;5009456;28;20228;-63
2022/11/08 14:38:15;;;;;;;4.72;1.33;;;;;;;;;;5009470;28;20221;-63
2022/11/08 14:40:46;;;;;;;3.60;1.55;;;;;;;;;;5009403;28;20236;-63
2022/11/08 14:43:11;;;;;;;4.75;1.20;;;;;;;;;;5009554;28;20213;-63
2022/11/08 14:45:36;;;;;;;5.72;1.75;;;;;;;;;;4992336;28;20575;-63
2022/11/08 14:48:03;;;;;;;5.55;1.55;;;;;;;;;;5008905;28;20227;-63
2022/11/08 14:50:29;;;;;;;3.75;1.40;;;;;;;;;;4992246;28;20217;-63
2022/11/08 14:52:55;;;;;;;4.65;1.25;;;;;;;;;;5008897;28;20245;-63
2022/11/08 14:55:22;;;;;;;8.65;2.10;;;;;;;;;;5009016;28;20252;-63
2022/11/08 14:57:47;;;;;;;6.43;2.58;;;;;;;;;;4992434;28;20221;-63
2022/11/08 15:00:14;;;;;;;5.57;1.80;;;;;;;;;;5007567;28;20224;-63
2022/11/08 15:02:39;;;;;;;5.78;1.60;;;;;;;;;;4992619;28;20216;-63